createdAt,value
2022-08-26T00:02:08.931Z,25.70
2022-08-26T00:04:38.313Z,25.80
2022-08-26T00:07:07.795Z,25.70
2022-08-26T00:09:40.057Z,25.70
2022-08-26T00:12:12.443Z,25.70
2022-08-26T00:14:42.147Z,25.70
2022-08-26T00:17:11.844Z,25.80
2022-08-26T00:19:43.625Z,25.80
2022-08-26T00:22:12.854Z,25.80
2022-08-26T00:24:49.553Z,25.80
2022-08-26T00:27:19.232Z,25.80
2022-08-26T00:29:50.006Z,25.80
2022-08-26T00:32:19.965Z,25.90
2022-08-26T00:34:49.219Z,25.90
2022-08-26T00:37:18.511Z,25.90
2022-08-26T00:39:47.712Z,25.90
2022-08-26T00:42:16.992Z,25.90
2022-08-26T00:44:47.134Z,25.90
2022-08-26T00:47:35.573Z,25.90
2022-08-26T00:50:12.667Z,25.90
2022-08-26T00:52:44.069Z,26.00
2022-08-26T00:55:22.036Z,26.00
2022-08-26T00:57:53.425Z,26.00
2022-08-26T01:00:27.506Z,26.00
2022-08-26T01:02:59.570Z,26.10
2022-08-26T01:05:29.416Z,26.10
2022-08-26T01:07:59.640Z,26.10
2022-08-26T01:10:32.647Z,26.20
2022-08-26T01:13:07.413Z,26.20
2022-08-26T01:15:43.092Z,26.20
2022-08-26T01:18:13.802Z,26.30
2022-08-26T01:20:45.915Z,26.30
2022-08-26T01:23:16.475Z,26.40
2022-08-26T01:25:50.500Z,26.40
2022-08-26T01:28:25.934Z,26.50
2022-08-26T01:30:57.413Z,26.50
2022-08-26T01:33:42.155Z,26.60
2022-08-26T01:36:13.599Z,26.70
2022-08-26T01:38:46.182Z,26.70
2022-08-26T01:41:19.690Z,26.80
2022-08-26T01:43:59.854Z,26.80
2022-08-26T01:46:32.665Z,26.90
2022-08-26T01:49:02.981Z,26.90
2022-08-26T01:51:40.418Z,26.90
2022-08-26T01:54:13.866Z,27.00
2022-08-26T01:56:44.885Z,27.00
2022-08-26T01:59:18.520Z,27.00
2022-08-26T02:01:50.119Z,27.10
2022-08-26T02:04:35.588Z,27.20
2022-08-26T02:07:08.217Z,27.20
2022-08-26T02:09:42.985Z,27.30
2022-08-26T02:12:14.150Z,27.30
2022-08-26T02:14:51.669Z,27.40
2022-08-26T02:17:26.683Z,27.40
2022-08-26T02:19:58.815Z,27.40
2022-08-26T02:22:28.137Z,27.50
2022-08-26T02:25:02.359Z,27.60
2022-08-26T02:27:35.326Z,27.60
2022-08-26T02:30:26.544Z,27.70
2022-08-26T02:33:02.619Z,27.80
2022-08-26T02:35:33.984Z,27.80
2022-08-26T02:38:10.169Z,27.90
2022-08-26T02:40:43.716Z,27.90
2022-08-26T02:43:14.012Z,28.00
2022-08-26T02:45:44.604Z,28.00
2022-08-26T02:48:18.760Z,28.10
2022-08-26T02:50:48.981Z,28.20
2022-08-26T02:53:25.018Z,28.30
2022-08-26T02:55:55.275Z,28.30
2022-08-26T02:58:25.000Z,28.30
2022-08-26T03:00:55.430Z,28.40
2022-08-26T03:03:25.299Z,28.50
2022-08-26T03:06:00.331Z,28.60
2022-08-26T03:08:30.323Z,28.70
2022-08-26T03:11:08.310Z,28.70
2022-08-26T03:13:42.131Z,28.80
2022-08-26T03:16:17.561Z,28.80
2022-08-26T03:18:52.211Z,28.80
2022-08-26T03:21:29.461Z,28.90
2022-08-26T03:24:01.854Z,28.80
2022-08-26T03:26:52.641Z,28.80
2022-08-26T03:29:43.579Z,28.80
2022-08-26T03:32:13.460Z,28.80
2022-08-26T03:34:46.201Z,28.80
2022-08-26T03:37:25.989Z,28.80
2022-08-26T03:39:56.644Z,28.80
2022-08-26T03:42:28.167Z,28.80
2022-08-26T03:44:59.177Z,28.80
2022-08-26T03:47:31.511Z,28.80
2022-08-26T03:50:18.054Z,28.80
2022-08-26T03:52:55.736Z,28.80
2022-08-26T03:55:34.143Z,28.70
2022-08-26T03:58:10.321Z,28.70
2022-08-26T04:00:47.508Z,28.60
2022-08-26T04:03:39.219Z,28.60
2022-08-26T04:06:10.038Z,28.70
2022-08-26T04:08:51.396Z,28.70
2022-08-26T04:11:27.196Z,28.80
2022-08-26T04:13:56.927Z,28.80
2022-08-26T04:16:28.790Z,28.80
2022-08-26T04:19:00.712Z,28.90
2022-08-26T04:21:34.434Z,28.90
2022-08-26T04:24:04.450Z,28.90
2022-08-26T04:26:42.888Z,28.90
2022-08-26T04:29:17.553Z,28.90
2022-08-26T04:31:51.729Z,28.90
2022-08-26T04:34:29.265Z,29.00
2022-08-26T04:36:59.290Z,29.10
2022-08-26T04:39:31.463Z,29.10
2022-08-26T04:42:02.726Z,29.10
2022-08-26T04:44:32.675Z,29.00
2022-08-26T04:47:03.053Z,29.00
2022-08-26T04:49:35.519Z,29.00
2022-08-26T04:52:07.124Z,29.00
2022-08-26T04:54:37.543Z,29.00
2022-08-26T04:57:06.827Z,28.90
2022-08-26T04:59:39.301Z,29.00
2022-08-26T05:02:08.852Z,29.00
2022-08-26T05:04:38.684Z,29.00
2022-08-26T05:07:09.428Z,29.00
2022-08-26T05:09:42.189Z,28.90
2022-08-26T05:12:11.700Z,28.90
2022-08-26T05:14:42.791Z,28.90
2022-08-26T05:17:15.048Z,28.90
2022-08-26T05:19:44.507Z,28.90
2022-08-26T05:22:13.783Z,28.90
2022-08-26T05:24:44.717Z,28.90
2022-08-26T05:27:14.882Z,28.90
2022-08-26T05:29:44.400Z,28.90
2022-08-26T05:32:13.758Z,28.90
2022-08-26T05:34:43.377Z,28.90
2022-08-26T05:37:13.592Z,28.90
2022-08-26T05:39:43.540Z,28.90
2022-08-26T05:42:22.504Z,28.90
2022-08-26T05:44:56.294Z,29.00
2022-08-26T05:47:26.172Z,28.90
2022-08-26T05:49:56.157Z,28.90
2022-08-26T05:52:26.032Z,28.80
2022-08-26T05:54:55.651Z,28.80
2022-08-26T05:57:26.917Z,28.80
2022-08-26T05:59:57.636Z,28.80
2022-08-26T06:02:28.582Z,28.80
2022-08-26T06:04:58.843Z,28.70
2022-08-26T06:07:49.355Z,28.60
2022-08-26T06:10:32.234Z,28.60
2022-08-26T06:13:13.637Z,28.50
2022-08-26T06:15:47.040Z,28.50
2022-08-26T06:18:23.910Z,28.40
2022-08-26T06:20:57.609Z,28.30
2022-08-26T06:23:49.980Z,28.10
2022-08-26T06:26:20.473Z,28.00
2022-08-26T06:28:53.775Z,27.90
2022-08-26T06:31:40.509Z,27.70
2022-08-26T06:34:20.974Z,27.60
2022-08-26T06:40:00.002Z,27.50
2022-08-26T06:45:32.087Z,27.40
2022-08-26T06:48:02.178Z,27.40
2022-08-26T06:50:31.750Z,27.30
2022-08-26T06:53:11.213Z,27.30
2022-08-26T06:58:51.424Z,27.30
2022-08-26T07:01:30.510Z,27.40
2022-08-26T07:04:10.342Z,27.40
2022-08-26T07:06:44.833Z,27.50
2022-08-26T07:09:52.917Z,27.60
2022-08-26T07:12:06.922Z,27.60
2022-08-26T07:14:39.255Z,27.70
2022-08-26T07:17:13.907Z,27.70
2022-08-26T07:19:44.617Z,27.80
2022-08-26T07:22:15.129Z,27.80
2022-08-26T07:24:45.727Z,27.70
2022-08-26T07:27:18.369Z,27.70
2022-08-26T07:29:51.438Z,27.70
2022-08-26T07:32:23.507Z,27.60
2022-08-26T07:34:53.276Z,27.60
2022-08-26T07:37:30.518Z,27.60
2022-08-26T07:40:06.474Z,27.70
2022-08-26T07:42:36.691Z,27.80
2022-08-26T07:45:07.253Z,27.90
2022-08-26T07:47:36.615Z,27.90
2022-08-26T07:50:06.282Z,28.00
2022-08-26T07:52:36.319Z,28.00
2022-08-26T07:55:11.779Z,28.10
2022-08-26T07:57:41.653Z,28.10
2022-08-26T08:00:14.347Z,28.10
2022-08-26T08:02:47.034Z,28.20
2022-08-26T08:05:18.466Z,28.10
2022-08-26T08:07:48.498Z,28.10
2022-08-26T08:10:26.044Z,28.10
2022-08-26T08:13:03.432Z,28.10
2022-08-26T08:15:35.170Z,28.10
2022-08-26T08:18:15.438Z,28.10
2022-08-26T08:21:28.964Z,28.00
2022-08-26T08:23:41.161Z,28.00
2022-08-26T08:26:12.438Z,28.10
2022-08-26T08:28:43.742Z,28.20
2022-08-26T08:31:38.660Z,28.20
2022-08-26T08:34:11.205Z,28.20
2022-08-26T08:36:41.420Z,28.20
2022-08-26T08:39:18.031Z,28.20
2022-08-26T08:42:12.868Z,28.20
2022-08-26T08:44:52.024Z,28.30
2022-08-26T08:47:28.787Z,28.40
2022-08-26T08:50:10.197Z,28.30
2022-08-26T08:52:43.270Z,28.30
2022-08-26T08:55:18.314Z,28.20
2022-08-26T08:58:04.991Z,28.30
2022-08-26T09:00:59.461Z,28.20
2022-08-26T09:04:29.566Z,28.20
2022-08-26T09:07:02.102Z,28.20
2022-08-26T09:09:41.615Z,28.20
2022-08-26T09:12:30.092Z,28.30
2022-08-26T09:15:09.730Z,28.20
2022-08-26T09:18:01.248Z,28.20
2022-08-26T09:21:03.050Z,28.20
2022-08-26T09:23:35.936Z,28.20
2022-08-26T09:26:31.785Z,28.10
2022-08-26T09:29:05.568Z,28.10
2022-08-26T09:31:38.979Z,28.00
2022-08-26T09:34:26.009Z,28.00
2022-08-26T09:36:59.407Z,27.80
2022-08-26T09:39:39.194Z,27.70
2022-08-26T09:42:24.950Z,27.60
2022-08-26T09:45:01.672Z,27.50
2022-08-26T09:47:39.494Z,27.40
2022-08-26T09:50:33.444Z,27.40
2022-08-26T09:53:16.275Z,27.30
2022-08-26T09:55:49.361Z,27.30
2022-08-26T09:58:38.074Z,27.20
2022-08-26T10:01:10.630Z,27.20
2022-08-26T10:03:42.661Z,27.20
2022-08-26T10:06:21.294Z,27.10
2022-08-26T10:08:56.109Z,27.20
2022-08-26T10:11:30.595Z,27.20
2022-08-26T10:14:06.281Z,27.20
2022-08-26T10:16:50.975Z,27.20
2022-08-26T10:19:29.167Z,27.30
2022-08-26T10:22:21.276Z,27.20
2022-08-26T10:24:55.861Z,27.20
2022-08-26T10:28:04.443Z,27.20
2022-08-26T10:30:44.669Z,27.20
2022-08-26T10:33:17.917Z,27.10
2022-08-26T10:35:55.478Z,27.10
2022-08-26T10:38:31.787Z,27.10
2022-08-26T10:41:09.789Z,27.10
2022-08-26T10:43:49.053Z,27.10
2022-08-26T10:46:23.784Z,27.10
2022-08-26T10:49:01.240Z,27.00
2022-08-26T10:51:40.003Z,27.00
2022-08-26T10:54:15.992Z,26.90
2022-08-26T10:56:49.833Z,26.90
2022-08-26T10:59:58.281Z,26.90
2022-08-26T11:02:49.788Z,26.90
2022-08-26T11:05:25.002Z,26.90
2022-08-26T11:07:57.770Z,26.90
2022-08-26T11:10:28.477Z,26.90
2022-08-26T11:13:00.686Z,26.90
2022-08-26T11:15:30.945Z,26.90
2022-08-26T11:18:02.441Z,26.90
2022-08-26T11:20:36.350Z,26.90
2022-08-26T11:23:25.653Z,26.90
2022-08-26T11:26:10.997Z,26.90
2022-08-26T11:28:55.494Z,26.90
2022-08-26T11:31:29.888Z,26.80
2022-08-26T11:34:18.361Z,26.80
2022-08-26T11:36:50.819Z,26.80
2022-08-26T11:39:30.501Z,26.80
2022-08-26T11:42:20.259Z,26.80
2022-08-26T11:44:49.963Z,26.80
2022-08-26T11:47:30.203Z,26.80
2022-08-26T11:50:21.201Z,26.80
2022-08-26T11:52:57.075Z,26.80
2022-08-26T11:55:26.650Z,26.80
2022-08-26T11:57:59.559Z,26.80
2022-08-26T12:00:36.412Z,26.70
2022-08-26T12:03:09.953Z,26.70
2022-08-26T12:05:46.662Z,26.70
2022-08-26T12:08:23.025Z,26.70
2022-08-26T12:11:15.081Z,26.60
2022-08-26T12:13:44.436Z,26.60
2022-08-26T12:16:15.783Z,26.60
2022-08-26T12:18:45.087Z,26.60
2022-08-26T12:21:24.272Z,26.60
2022-08-26T12:23:57.722Z,26.60
2022-08-26T12:26:37.435Z,26.40
2022-08-26T12:29:10.796Z,26.30
2022-08-26T12:31:49.473Z,26.00
2022-08-26T12:34:19.442Z,25.70
2022-08-26T12:36:55.450Z,25.40
2022-08-26T12:39:42.235Z,25.00
2022-08-26T12:42:19.920Z,24.90
2022-08-26T12:45:07.911Z,24.80
2022-08-26T12:47:44.455Z,24.70
2022-08-26T12:50:22.423Z,24.60
2022-08-26T12:53:00.199Z,24.60
2022-08-26T12:55:55.365Z,24.50
2022-08-26T12:58:28.959Z,24.50
2022-08-26T13:01:01.383Z,24.50
2022-08-26T13:03:45.001Z,24.50
2022-08-26T13:06:24.868Z,24.50
2022-08-26T13:08:56.010Z,24.60
2022-08-26T13:11:29.124Z,24.60
2022-08-26T13:14:07.143Z,24.60
2022-08-26T13:16:38.380Z,24.60
2022-08-26T13:19:10.757Z,24.60
2022-08-26T13:21:46.354Z,24.60
2022-08-26T13:24:20.391Z,24.60
2022-08-26T13:26:51.330Z,24.60
2022-08-26T13:29:21.332Z,24.60
2022-08-26T13:31:51.675Z,24.60
2022-08-26T13:34:23.118Z,24.70
2022-08-26T13:36:55.482Z,24.70
2022-08-26T13:39:26.267Z,24.80
2022-08-26T13:41:55.852Z,24.80
2022-08-26T13:44:25.386Z,24.80
2022-08-26T13:46:55.479Z,24.80
2022-08-26T13:49:24.881Z,24.80
2022-08-26T13:51:54.199Z,24.80
2022-08-26T13:54:23.401Z,24.80
2022-08-26T13:56:53.092Z,24.80
2022-08-26T13:59:23.246Z,24.80
2022-08-26T14:01:52.496Z,24.80
2022-08-26T14:04:23.345Z,24.80
2022-08-26T14:06:56.629Z,24.90
2022-08-26T14:09:26.005Z,24.90
2022-08-26T14:11:55.360Z,24.80
2022-08-26T14:14:24.784Z,24.80
2022-08-26T14:16:59.472Z,24.80
2022-08-26T14:19:31.450Z,24.90
2022-08-26T14:22:02.422Z,24.80
2022-08-26T14:24:32.192Z,24.80
2022-08-26T14:27:01.431Z,24.80
2022-08-26T14:29:30.591Z,24.80
2022-08-26T14:32:01.668Z,24.90
2022-08-26T14:34:30.918Z,24.90
2022-08-26T14:37:07.181Z,25.00
2022-08-26T14:39:38.538Z,24.90
2022-08-26T14:42:08.454Z,25.00
2022-08-26T14:44:38.411Z,25.00
2022-08-26T14:49:44.082Z,25.00
2022-08-26T14:52:13.192Z,25.10
2022-08-26T14:54:42.319Z,25.10
2022-08-26T14:57:14.900Z,25.10
2022-08-26T14:59:49.960Z,25.10
2022-08-26T15:02:33.556Z,25.20
2022-08-26T15:05:04.284Z,25.20
2022-08-26T15:07:33.543Z,25.10
2022-08-26T15:10:02.853Z,25.10
2022-08-26T15:12:32.787Z,25.10
2022-08-26T15:15:02.065Z,25.00
2022-08-26T15:17:31.349Z,25.00
2022-08-26T15:20:00.694Z,25.00
2022-08-26T15:22:30.038Z,25.00
2022-08-26T15:24:59.723Z,24.90
2022-08-26T15:27:29.114Z,24.90
2022-08-26T15:29:58.349Z,24.90
2022-08-26T15:32:27.643Z,24.90
2022-08-26T15:34:56.865Z,24.90
2022-08-26T15:37:26.327Z,24.90
2022-08-26T15:39:55.795Z,24.90
2022-08-26T15:42:25.568Z,24.90
2022-08-26T15:44:54.882Z,24.90
2022-08-26T15:47:25.167Z,24.90
2022-08-26T15:49:55.025Z,24.90
2022-08-26T15:52:24.270Z,24.90
2022-08-26T15:54:54.123Z,25.00
2022-08-26T15:57:23.418Z,25.00
2022-08-26T15:59:53.037Z,25.00
2022-08-26T16:02:22.856Z,25.00
2022-08-26T16:04:52.106Z,25.00
2022-08-26T16:07:23.597Z,25.00
2022-08-26T16:09:55.422Z,25.00
2022-08-26T16:12:24.861Z,25.00
2022-08-26T16:14:55.333Z,25.00
2022-08-26T16:17:24.507Z,25.00
2022-08-26T16:19:53.702Z,25.10
2022-08-26T16:22:22.926Z,25.10
2022-08-26T16:24:53.033Z,25.20
2022-08-26T16:27:24.419Z,25.10
2022-08-26T16:29:53.543Z,25.10
2022-08-26T16:32:22.828Z,25.10
2022-08-26T16:34:56.965Z,25.10
2022-08-26T16:37:26.927Z,25.10
2022-08-26T16:39:56.247Z,25.20
2022-08-26T16:42:25.446Z,25.10
2022-08-26T16:44:55.075Z,25.20
2022-08-26T16:47:24.615Z,25.20
2022-08-26T16:49:54.063Z,25.20
2022-08-26T16:52:25.207Z,25.20
2022-08-26T16:54:59.803Z,25.20
2022-08-26T16:57:29.111Z,25.20
2022-08-26T17:03:39.834Z,25.20
2022-08-26T17:06:09.320Z,25.10
2022-08-26T17:08:41.385Z,25.10
2022-08-26T17:11:11.220Z,25.10
2022-08-26T17:13:41.131Z,25.10
2022-08-26T17:16:12.457Z,25.10
2022-08-26T17:18:41.939Z,25.10
2022-08-26T17:21:13.643Z,25.10
2022-08-26T17:23:44.597Z,25.10
2022-08-26T17:26:14.711Z,25.10
2022-08-26T17:28:44.018Z,25.10
2022-08-26T17:31:14.930Z,25.10
2022-08-26T17:33:46.729Z,25.10
2022-08-26T17:36:18.398Z,25.10
2022-08-26T17:38:50.310Z,25.10
2022-08-26T17:41:23.478Z,25.10
2022-08-26T17:43:52.869Z,25.00
2022-08-26T17:46:22.133Z,25.10
2022-08-26T17:48:51.424Z,25.10
2022-08-26T17:51:21.751Z,25.00
2022-08-26T17:53:51.764Z,25.00
2022-08-26T17:56:25.631Z,25.10
2022-08-26T17:58:57.468Z,25.10
2022-08-26T18:01:32.163Z,25.10
2022-08-26T18:04:01.411Z,25.10
2022-08-26T18:06:31.791Z,25.10
2022-08-26T18:09:02.366Z,25.10
2022-08-26T18:11:32.622Z,25.10
2022-08-26T18:14:02.916Z,25.10
2022-08-26T18:16:35.504Z,25.10
2022-08-26T18:19:04.885Z,25.10
2022-08-26T18:21:34.529Z,25.00
2022-08-26T18:24:03.859Z,25.00
2022-08-26T18:26:37.773Z,25.00
2022-08-26T18:29:08.142Z,25.00
2022-08-26T18:31:37.462Z,25.00
2022-08-26T18:34:07.784Z,25.00
2022-08-26T18:36:39.471Z,25.00
2022-08-26T18:39:10.248Z,25.10
2022-08-26T18:41:46.436Z,25.10
2022-08-26T18:44:17.912Z,25.00
2022-08-26T18:46:48.319Z,25.10
2022-08-26T18:49:19.664Z,25.10
2022-08-26T18:51:51.970Z,25.10
2022-08-26T18:54:22.358Z,25.20
2022-08-26T18:56:51.615Z,25.20
2022-08-26T18:59:28.807Z,25.20
2022-08-26T19:02:00.738Z,25.10
2022-08-26T19:04:30.130Z,25.10
2022-08-26T19:06:59.392Z,25.10
2022-08-26T19:09:28.709Z,25.10
2022-08-26T19:11:57.974Z,25.10
2022-08-26T19:14:27.382Z,25.10
2022-08-26T19:16:56.971Z,25.20
2022-08-26T19:19:27.332Z,25.20
2022-08-26T19:21:56.946Z,25.20
2022-08-26T19:24:28.147Z,25.20
2022-08-26T19:27:00.985Z,25.20
2022-08-26T19:29:33.637Z,25.20
2022-08-26T19:32:03.558Z,25.30
2022-08-26T19:34:33.164Z,25.30
2022-08-26T19:37:02.346Z,25.20
2022-08-26T19:39:31.622Z,25.20
2022-08-26T19:42:01.739Z,25.20
2022-08-26T19:44:50.674Z,25.20
2022-08-26T19:50:02.587Z,25.10
2022-08-26T19:52:32.614Z,25.10
2022-08-26T19:55:19.697Z,25.10
2022-08-26T19:57:48.932Z,25.10
2022-08-26T20:00:21.429Z,25.10
2022-08-26T20:02:51.194Z,25.10
2022-08-26T20:08:08.168Z,25.20
2022-08-26T20:10:47.833Z,25.10
2022-08-26T20:13:26.917Z,25.10
2022-08-26T20:18:59.347Z,25.10
2022-08-26T20:21:30.843Z,25.10
2022-08-26T20:24:08.643Z,25.10
2022-08-26T20:26:40.920Z,25.10
2022-08-26T20:29:12.917Z,25.10
2022-08-26T20:31:43.244Z,25.10
2022-08-26T20:34:14.645Z,25.10
2022-08-26T20:36:44.881Z,25.10
2022-08-26T20:39:14.781Z,25.10
2022-08-26T20:41:46.918Z,25.20
2022-08-26T20:44:16.260Z,25.20
2022-08-26T20:46:46.215Z,25.20
2022-08-26T20:52:13.503Z,25.20
2022-08-26T20:54:42.852Z,25.20
2022-08-26T20:57:12.086Z,25.20
2022-08-26T20:59:41.344Z,25.20
2022-08-26T21:02:11.195Z,25.20
2022-08-26T21:04:40.498Z,25.20
2022-08-26T21:09:56.398Z,25.20
2022-08-26T21:12:25.548Z,25.30
2022-08-26T21:14:54.936Z,25.30
2022-08-26T21:17:24.221Z,25.30
2022-08-26T21:20:03.628Z,25.30
2022-08-26T21:22:32.952Z,25.40
2022-08-26T21:25:02.474Z,25.30
2022-08-26T21:27:31.735Z,25.40
2022-08-26T21:32:44.181Z,25.40
2022-08-26T21:35:13.389Z,25.40
2022-08-26T21:37:42.687Z,25.40
2022-08-26T21:40:12.609Z,25.40
2022-08-26T21:42:41.914Z,25.40
2022-08-26T21:45:21.013Z,25.30
2022-08-26T21:47:50.168Z,25.30
2022-08-26T21:50:19.447Z,25.30
2022-08-26T21:52:48.729Z,25.30
2022-08-26T21:55:17.999Z,25.30
2022-08-26T22:00:35.622Z,25.30
2022-08-26T22:03:05.002Z,25.30
2022-08-26T22:05:34.196Z,25.30
2022-08-26T22:08:03.432Z,25.30
2022-08-26T22:10:32.668Z,25.30
2022-08-26T22:13:01.923Z,25.30
2022-08-26T22:15:33.235Z,25.30
2022-08-26T22:18:05.671Z,25.30
2022-08-26T22:20:35.063Z,25.20
2022-08-26T22:23:04.632Z,25.20
2022-08-26T22:25:34.126Z,25.30
2022-08-26T22:28:03.403Z,25.30
2022-08-26T22:30:33.022Z,25.30
2022-08-26T22:33:02.551Z,25.30
2022-08-26T22:35:32.013Z,25.20
2022-08-26T22:38:01.572Z,25.20
2022-08-26T22:40:30.799Z,25.20
2022-08-26T22:43:00.387Z,25.10
2022-08-26T22:45:32.617Z,25.10
2022-08-26T22:48:06.022Z,25.10
2022-08-26T22:50:35.338Z,25.20
2022-08-26T22:53:04.854Z,25.20
2022-08-26T22:55:34.086Z,25.20
2022-08-26T22:58:03.502Z,25.20
2022-08-26T23:00:33.199Z,25.20
2022-08-26T23:03:03.611Z,25.20
2022-08-26T23:05:34.090Z,25.20
2022-08-26T23:08:04.264Z,25.20
2022-08-26T23:10:34.253Z,25.20
2022-08-26T23:13:05.093Z,25.10
2022-08-26T23:15:34.291Z,25.10
2022-08-26T23:18:03.907Z,25.10
2022-08-26T23:20:35.003Z,25.10
2022-08-26T23:23:04.251Z,25.20
2022-08-26T23:25:34.017Z,25.20
2022-08-26T23:28:04.255Z,25.20
2022-08-26T23:30:35.834Z,25.20
2022-08-26T23:33:05.119Z,25.20
2022-08-26T23:35:34.362Z,25.20
2022-08-26T23:38:04.235Z,25.20
2022-08-26T23:40:36.328Z,25.20
2022-08-26T23:43:09.358Z,25.20
2022-08-26T23:45:39.176Z,25.30
2022-08-26T23:48:09.015Z,25.30
2022-08-26T23:50:58.026Z,25.30
2022-08-26T23:53:27.313Z,25.30
2022-08-26T23:55:56.891Z,25.30
2022-08-26T23:58:26.087Z,25.30
